sensor_id;sensor_type;location;lat;lon;timestamp;P1;durP1;ratioP1;P2;durP2;ratioP2
3817;SDS011;1924;48.078;11.516;2023-08-17T00:00:38;36.17;;;0.80;;
3817;SDS011;1924;48.078;11.516;2023-08-17T00:03:05;36.10;;;0.80;;
3817;SDS011;1924;48.078;11.516;2023-08-17T00:05:32;35.83;;;0.80;;
3817;SDS011;1924;48.078;11.516;2023-08-17T00:07:59;35.93;;;0.80;;
3817;SDS011;1924;48.078;11.516;2023-08-17T00:10:27;35.77;;;0.80;;
3817;SDS011;1924;48.078;11.516;2023-08-17T00:12:55;35.97;;;0.80;;
3817;SDS011;1924;48.078;11.516;2023-08-17T00:15:22;36.10;;;0.80;;
3817;SDS011;1924;48.078;11.516;2023-08-17T00:17:49;36.13;;;0.80;;
3817;SDS011;1924;48.078;11.516;2023-08-17T00:20:16;35.97;;;0.80;;
3817;SDS011;1924;48.078;11.516;2023-08-17T00:22:43;36.00;;;0.90;;
3817;SDS011;1924;48.078;11.516;2023-08-17T00:25:10;35.80;;;0.80;;
3817;SDS011;1924;48.078;11.516;2023-08-17T00:27:37;35.77;;;0.80;;
3817;SDS011;1924;48.078;11.516;2023-08-17T00:30:05;36.07;;;0.80;;
3817;SDS011;1924;48.078;11.516;2023-08-17T00:32:33;35.93;;;0.80;;
3817;SDS011;1924;48.078;11.516;2023-08-17T00:35:00;35.90;;;0.80;;
3817;SDS011;1924;48.078;11.516;2023-08-17T00:37:27;35.97;;;0.80;;
3817;SDS011;1924;48.078;11.516;2023-08-17T00:39:57;35.80;;;0.80;;
3817;SDS011;1924;48.078;11.516;2023-08-17T04:02:11;35.60;;;0.80;;
3817;SDS011;1924;48.078;11.516;2023-08-17T04:04:38;35.33;;;0.80;;
3817;SDS011;1924;48.078;11.516;2023-08-17T04:07:05;35.57;;;0.80;;
3817;SDS011;1924;48.078;11.516;2023-08-17T04:09:32;35.60;;;0.90;;
3817;SDS011;1924;48.078;11.516;2023-08-17T04:11:59;35.57;;;0.80;;
3817;SDS011;1924;48.078;11.516;2023-08-17T04:14:25;35.53;;;0.80;;
3817;SDS011;1924;48.078;11.516;2023-08-17T04:16:52;35.43;;;0.80;;
3817;SDS011;1924;48.078;11.516;2023-08-17T04:19:21;35.70;;;0.80;;
3817;SDS011;1924;48.078;11.516;2023-08-17T04:21:48;35.37;;;0.80;;
3817;SDS011;1924;48.078;11.516;2023-08-17T04:24:15;35.43;;;0.80;;
3817;SDS011;1924;48.078;11.516;2023-08-17T04:26:42;35.63;;;0.80;;
3817;SDS011;1924;48.078;11.516;2023-08-17T04:29:08;35.17;;;0.80;;
3817;SDS011;1924;48.078;11.516;2023-08-17T04:31:35;35.50;;;0.80;;
3817;SDS011;1924;48.078;11.516;2023-08-17T04:34:02;35.50;;;0.80;;
3817;SDS011;1924;48.078;11.516;2023-08-17T04:36:30;35.47;;;0.80;;
3817;SDS011;1924;48.078;11.516;2023-08-17T04:38:57;35.60;;;0.80;;
3817;SDS011;1924;48.078;11.516;2023-08-17T04:41:24;35.63;;;0.80;;
3817;SDS011;1924;48.078;11.516;2023-08-17T04:43:51;35.50;;;0.80;;
3817;SDS011;1924;48.078;11.516;2023-08-17T04:46:18;35.60;;;0.80;;
3817;SDS011;1924;48.078;11.516;2023-08-17T04:48:45;35.40;;;0.80;;
3817;SDS011;1924;48.078;11.516;2023-08-17T04:51:12;35.33;;;0.80;;
3817;SDS011;1924;48.078;11.516;2023-08-17T04:53:41;35.43;;;0.80;;
3817;SDS011;1924;48.078;11.516;2023-08-17T04:56:07;35.37;;;0.80;;
3817;SDS011;1924;48.078;11.516;2023-08-17T04:58:34;35.20;;;0.80;;
3817;SDS011;1924;48.078;11.516;2023-08-17T05:01:01;35.30;;;0.80;;
3817;SDS011;1924;48.078;11.516;2023-08-17T05:03:28;35.20;;;0.80;;
3817;SDS011;1924;48.078;11.516;2023-08-17T05:05:56;35.23;;;0.80;;
3817;SDS011;1924;48.078;11.516;2023-08-17T05:08:23;35.30;;;0.80;;
3817;SDS011;1924;48.078;11.516;2023-08-17T05:10:51;35.20;;;0.80;;
3817;SDS011;1924;48.078;11.516;2023-08-17T05:13:17;34.87;;;0.80;;
3817;SDS011;1924;48.078;11.516;2023-08-17T05:15:44;35.00;;;0.80;;
3817;SDS011;1924;48.078;11.516;2023-08-17T05:18:11;35.20;;;0.80;;
3817;SDS011;1924;48.078;11.516;2023-08-17T05:20:37;35.10;;;0.80;;
3817;SDS011;1924;48.078;11.516;2023-08-17T05:23:04;35.13;;;0.80;;
3817;SDS011;1924;48.078;11.516;2023-08-17T05:25:31;34.93;;;0.80;;
3817;SDS011;1924;48.078;11.516;2023-08-17T05:27:59;35.20;;;0.80;;
3817;SDS011;1924;48.078;11.516;2023-08-17T05:30:26;35.00;;;0.80;;
3817;SDS011;1924;48.078;11.516;2023-08-17T05:32:52;35.17;;;0.80;;
3817;SDS011;1924;48.078;11.516;2023-08-17T05:35:19;35.07;;;0.80;;
3817;SDS011;1924;48.078;11.516;2023-08-17T05:37:46;35.17;;;0.80;;
3817;SDS011;1924;48.078;11.516;2023-08-17T05:40:13;35.27;;;0.80;;
3817;SDS011;1924;48.078;11.516;2023-08-17T05:42:39;34.97;;;0.80;;
3817;SDS011;1924;48.078;11.516;2023-08-17T05:45:08;35.07;;;0.80;;
3817;SDS011;1924;48.078;11.516;2023-08-17T05:47:35;35.23;;;0.80;;
3817;SDS011;1924;48.078;11.516;2023-08-17T05:50:02;35.37;;;0.80;;
3817;SDS011;1924;48.078;11.516;2023-08-17T05:52:29;35.27;;;0.80;;
3817;SDS011;1924;48.078;11.516;2023-08-17T05:54:57;35.40;;;0.80;;
3817;SDS011;1924;48.078;11.516;2023-08-17T05:57:23;35.67;;;0.80;;
3817;SDS011;1924;48.078;11.516;2023-08-17T05:59:50;35.57;;;0.80;;
3817;SDS011;1924;48.078;11.516;2023-08-17T06:02:18;35.33;;;0.80;;
3817;SDS011;1924;48.078;11.516;2023-08-17T06:04:46;35.40;;;0.80;;
3817;SDS011;1924;48.078;11.516;2023-08-17T06:07:13;35.27;;;0.80;;
3817;SDS011;1924;48.078;11.516;2023-08-17T06:09:40;35.37;;;0.80;;
3817;SDS011;1924;48.078;11.516;2023-08-17T06:12:07;35.27;;;0.80;;
3817;SDS011;1924;48.078;11.516;2023-08-17T06:14:33;35.33;;;0.80;;
3817;SDS011;1924;48.078;11.516;2023-08-17T06:17:00;35.17;;;0.80;;
3817;SDS011;1924;48.078;11.516;2023-08-17T06:19:28;35.00;;;0.80;;
3817;SDS011;1924;48.078;11.516;2023-08-17T06:21:55;35.10;;;0.80;;
3817;SDS011;1924;48.078;11.516;2023-08-17T06:24:21;35.10;;;0.80;;
3817;SDS011;1924;48.078;11.516;2023-08-17T06:26:48;35.03;;;0.80;;
3817;SDS011;1924;48.078;11.516;2023-08-17T06:29:15;35.13;;;0.80;;
3817;SDS011;1924;48.078;11.516;2023-08-17T06:31:42;35.07;;;0.80;;
3817;SDS011;1924;48.078;11.516;2023-08-17T06:34:08;35.20;;;0.80;;
3817;SDS011;1924;48.078;11.516;2023-08-17T06:36:37;35.20;;;0.80;;
3817;SDS011;1924;48.078;11.516;2023-08-17T06:39:04;35.17;;;0.80;;
3817;SDS011;1924;48.078;11.516;2023-08-17T06:41:31;35.07;;;0.80;;
3817;SDS011;1924;48.078;11.516;2023-08-17T06:43:58;35.20;;;0.80;;
3817;SDS011;1924;48.078;11.516;2023-08-17T06:46:24;34.93;;;0.80;;
3817;SDS011;1924;48.078;11.516;2023-08-17T06:48:53;35.13;;;0.80;;
3817;SDS011;1924;48.078;11.516;2023-08-17T06:51:19;35.17;;;0.80;;
3817;SDS011;1924;48.078;11.516;2023-08-17T06:53:47;35.37;;;0.80;;
3817;SDS011;1924;48.078;11.516;2023-08-17T06:56:14;35.27;;;0.80;;
3817;SDS011;1924;48.078;11.516;2023-08-17T06:58:41;35.23;;;0.80;;
3817;SDS011;1924;48.078;11.516;2023-08-17T07:01:07;35.17;;;0.80;;
3817;SDS011;1924;48.078;11.516;2023-08-17T07:03:34;35.23;;;0.80;;
3817;SDS011;1924;48.078;11.516;2023-08-17T07:06:01;35.20;;;0.80;;
3817;SDS011;1924;48.078;11.516;2023-08-17T07:08:29;35.17;;;0.80;;
3817;SDS011;1924;48.078;11.516;2023-08-17T07:10:57;35.27;;;0.80;;
3817;SDS011;1924;48.078;11.516;2023-08-17T07:13:23;35.13;;;0.80;;
3817;SDS011;1924;48.078;11.516;2023-08-17T07:15:50;35.40;;;0.80;;
3817;SDS011;1924;48.078;11.516;2023-08-17T07:18:17;35.40;;;0.80;;
3817;SDS011;1924;48.078;11.516;2023-08-17T07:20:43;35.03;;;0.80;;
3817;SDS011;1924;48.078;11.516;2023-08-17T07:23:10;35.33;;;0.80;;
3817;SDS011;1924;48.078;11.516;2023-08-17T07:25:37;35.33;;;0.80;;
3817;SDS011;1924;48.078;11.516;2023-08-17T07:28:05;35.37;;;0.80;;
3817;SDS011;1924;48.078;11.516;2023-08-17T07:30:32;34.87;;;0.80;;
3817;SDS011;1924;48.078;11.516;2023-08-17T07:32:59;35.17;;;0.80;;
3817;SDS011;1924;48.078;11.516;2023-08-17T07:35:26;35.07;;;0.80;;
3817;SDS011;1924;48.078;11.516;2023-08-17T07:37:53;35.27;;;0.80;;
3817;SDS011;1924;48.078;11.516;2023-08-17T07:40:19;35.17;;;0.80;;
3817;SDS011;1924;48.078;11.516;2023-08-17T07:42:46;35.20;;;0.80;;
3817;SDS011;1924;48.078;11.516;2023-08-17T07:45:15;35.20;;;0.80;;
3817;SDS011;1924;48.078;11.516;2023-08-17T07:47:41;35.30;;;0.80;;
3817;SDS011;1924;48.078;11.516;2023-08-17T07:50:08;35.20;;;0.80;;
3817;SDS011;1924;48.078;11.516;2023-08-17T07:52:35;35.30;;;0.80;;
3817;SDS011;1924;48.078;11.516;2023-08-17T07:55:02;35.17;;;0.80;;
3817;SDS011;1924;48.078;11.516;2023-08-17T07:57:30;35.23;;;0.80;;
3817;SDS011;1924;48.078;11.516;2023-08-17T07:59:56;35.17;;;0.80;;
3817;SDS011;1924;48.078;11.516;2023-08-17T08:02:25;35.07;;;0.80;;
3817;SDS011;1924;48.078;11.516;2023-08-17T08:04:51;34.97;;;0.80;;
3817;SDS011;1924;48.078;11.516;2023-08-17T08:07:18;35.10;;;0.80;;
3817;SDS011;1924;48.078;11.516;2023-08-17T08:09:45;35.20;;;0.80;;
3817;SDS011;1924;48.078;11.516;2023-08-17T08:12:11;35.07;;;0.80;;
3817;SDS011;1924;48.078;11.516;2023-08-17T08:14:38;34.97;;;0.80;;
3817;SDS011;1924;48.078;11.516;2023-08-17T08:17:05;34.93;;;0.80;;
3817;SDS011;1924;48.078;11.516;2023-08-17T08:19:33;34.97;;;0.80;;
3817;SDS011;1924;48.078;11.516;2023-08-17T08:22:00;34.90;;;0.80;;
3817;SDS011;1924;48.078;11.516;2023-08-17T08:24:27;34.93;;;0.80;;
3817;SDS011;1924;48.078;11.516;2023-08-17T08:26:58;34.87;;;0.80;;
3817;SDS011;1924;48.078;11.516;2023-08-17T08:29:25;35.00;;;0.80;;
3817;SDS011;1924;48.078;11.516;2023-08-17T08:31:52;34.90;;;0.80;;
3817;SDS011;1924;48.078;11.516;2023-08-17T08:34:19;34.87;;;0.80;;
3817;SDS011;1924;48.078;11.516;2023-08-17T08:36:47;35.00;;;0.80;;
3817;SDS011;1924;48.078;11.516;2023-08-17T08:39:14;34.87;;;0.80;;
3817;SDS011;1924;48.078;11.516;2023-08-17T08:41:41;35.00;;;0.80;;
3817;SDS011;1924;48.078;11.516;2023-08-17T08:44:08;34.83;;;0.80;;
3817;SDS011;1924;48.078;11.516;2023-08-17T08:46:34;34.87;;;0.80;;
3817;SDS011;1924;48.078;11.516;2023-08-17T08:49:05;34.67;;;0.80;;
3817;SDS011;1924;48.078;11.516;2023-08-17T08:51:35;34.97;;;0.80;;
3817;SDS011;1924;48.078;11.516;2023-08-17T08:54:10;34.90;;;0.80;;
3817;SDS011;1924;48.078;11.516;2023-08-17T08:56:39;34.97;;;0.80;;
3817;SDS011;1924;48.078;11.516;2023-08-17T08:59:10;34.97;;;0.80;;
3817;SDS011;1924;48.078;11.516;2023-08-17T09:01:38;34.87;;;0.80;;
3817;SDS011;1924;48.078;11.516;2023-08-17T09:04:05;34.83;;;0.80;;
3817;SDS011;1924;48.078;11.516;2023-08-17T09:06:32;34.80;;;0.80;;
3817;SDS011;1924;48.078;11.516;2023-08-17T09:09:00;34.73;;;0.80;;
3817;SDS011;1924;48.078;11.516;2023-08-17T09:11:28;34.80;;;0.80;;
3817;SDS011;1924;48.078;11.516;2023-08-17T09:13:56;34.83;;;0.80;;
3817;SDS011;1924;48.078;11.516;2023-08-17T09:16:22;34.67;;;0.80;;
3817;SDS011;1924;48.078;11.516;2023-08-17T09:18:49;34.83;;;0.80;;
3817;SDS011;1924;48.078;11.516;2023-08-17T09:21:21;34.63;;;0.80;;
3817;SDS011;1924;48.078;11.516;2023-08-17T09:23:52;34.70;;;0.80;;
3817;SDS011;1924;48.078;11.516;2023-08-17T09:26:20;34.67;;;0.80;;
3817;SDS011;1924;48.078;11.516;2023-08-17T09:28:49;34.80;;;0.80;;
3817;SDS011;1924;48.078;11.516;2023-08-17T09:31:19;34.60;;;0.80;;
3817;SDS011;1924;48.078;11.516;2023-08-17T09:33:48;34.67;;;0.80;;
3817;SDS011;1924;48.078;11.516;2023-08-17T09:36:19;34.67;;;0.80;;
3817;SDS011;1924;48.078;11.516;2023-08-17T09:38:47;34.73;;;0.80;;
3817;SDS011;1924;48.078;11.516;2023-08-17T09:41:14;34.70;;;0.80;;
3817;SDS011;1924;48.078;11.516;2023-08-17T09:43:41;34.63;;;0.80;;
3817;SDS011;1924;48.078;11.516;2023-08-17T09:46:10;34.47;;;0.80;;
3817;SDS011;1924;48.078;11.516;2023-08-17T09:48:37;34.47;;;0.80;;
3817;SDS011;1924;48.078;11.516;2023-08-17T09:51:03;34.47;;;0.80;;
3817;SDS011;1924;48.078;11.516;2023-08-17T09:53:34;34.57;;;0.80;;
3817;SDS011;1924;48.078;11.516;2023-08-17T09:56:03;34.57;;;0.80;;
3817;SDS011;1924;48.078;11.516;2023-08-17T09:58:32;34.53;;;0.80;;
3817;SDS011;1924;48.078;11.516;2023-08-17T10:00:59;34.40;;;0.80;;
3817;SDS011;1924;48.078;11.516;2023-08-17T10:03:32;34.60;;;0.80;;
3817;SDS011;1924;48.078;11.516;2023-08-17T10:06:03;34.53;;;0.80;;
3817;SDS011;1924;48.078;11.516;2023-08-17T10:08:31;34.33;;;0.80;;
3817;SDS011;1924;48.078;11.516;2023-08-17T10:11:02;34.57;;;0.80;;
3817;SDS011;1924;48.078;11.516;2023-08-17T10:13:31;34.33;;;0.80;;
3817;SDS011;1924;48.078;11.516;2023-08-17T10:16:02;34.53;;;0.80;;
3817;SDS011;1924;48.078;11.516;2023-08-17T10:18:37;34.33;;;0.80;;
3817;SDS011;1924;48.078;11.516;2023-08-17T10:21:13;34.57;;;0.80;;
3817;SDS011;1924;48.078;11.516;2023-08-17T10:23:45;34.60;;;0.80;;
3817;SDS011;1924;48.078;11.516;2023-08-17T10:26:12;34.43;;;0.80;;
3817;SDS011;1924;48.078;11.516;2023-08-17T10:28:39;34.43;;;0.80;;
3817;SDS011;1924;48.078;11.516;2023-08-17T10:31:06;34.27;;;0.80;;
3817;SDS011;1924;48.078;11.516;2023-08-17T10:33:36;34.57;;;0.80;;
3817;SDS011;1924;48.078;11.516;2023-08-17T10:36:06;34.50;;;0.80;;
3817;SDS011;1924;48.078;11.516;2023-08-17T10:38:33;34.53;;;0.80;;
3817;SDS011;1924;48.078;11.516;2023-08-17T10:43:52;34.77;;;0.80;;
3817;SDS011;1924;48.078;11.516;2023-08-17T10:46:20;34.53;;;0.80;;
3817;SDS011;1924;48.078;11.516;2023-08-17T10:48:48;34.67;;;0.80;;
3817;SDS011;1924;48.078;11.516;2023-08-17T10:51:15;34.60;;;0.80;;
3817;SDS011;1924;48.078;11.516;2023-08-17T10:53:49;34.57;;;0.80;;
3817;SDS011;1924;48.078;11.516;2023-08-17T10:56:19;34.73;;;0.80;;
3817;SDS011;1924;48.078;11.516;2023-08-17T10:58:46;34.67;;;0.70;;
3817;SDS011;1924;48.078;11.516;2023-08-17T11:01:25;34.67;;;0.80;;
3817;SDS011;1924;48.078;11.516;2023-08-17T11:04:12;34.60;;;0.80;;
3817;SDS011;1924;48.078;11.516;2023-08-17T11:06:42;34.80;;;0.80;;
3817;SDS011;1924;48.078;11.516;2023-08-17T11:09:09;34.50;;;0.80;;
3817;SDS011;1924;48.078;11.516;2023-08-17T11:11:37;34.53;;;0.80;;
3817;SDS011;1924;48.078;11.516;2023-08-17T11:14:04;34.50;;;0.77;;
3817;SDS011;1924;48.078;11.516;2023-08-17T11:16:31;34.60;;;0.80;;
3817;SDS011;1924;48.078;11.516;2023-08-17T11:18:57;34.73;;;0.80;;
3817;SDS011;1924;48.078;11.516;2023-08-17T11:21:28;34.53;;;0.80;;
3817;SDS011;1924;48.078;11.516;2023-08-17T11:23:55;34.53;;;0.80;;
3817;SDS011;1924;48.078;11.516;2023-08-17T11:26:23;34.80;;;0.80;;
3817;SDS011;1924;48.078;11.516;2023-08-17T11:28:50;34.77;;;0.80;;
3817;SDS011;1924;48.078;11.516;2023-08-17T11:31:18;34.97;;;0.80;;
3817;SDS011;1924;48.078;11.516;2023-08-17T11:33:44;34.77;;;0.80;;
3817;SDS011;1924;48.078;11.516;2023-08-17T11:36:12;34.93;;;0.80;;
3817;SDS011;1924;48.078;11.516;2023-08-17T11:38:42;34.73;;;0.80;;
3817;SDS011;1924;48.078;11.516;2023-08-17T11:41:09;34.90;;;0.70;;
3817;SDS011;1924;48.078;11.516;2023-08-17T11:43:36;35.00;;;0.80;;
3817;SDS011;1924;48.078;11.516;2023-08-17T11:46:03;35.00;;;0.80;;
3817;SDS011;1924;48.078;11.516;2023-08-17T11:48:30;34.90;;;0.80;;
3817;SDS011;1924;48.078;11.516;2023-08-17T11:50:57;34.97;;;0.80;;
3817;SDS011;1924;48.078;11.516;2023-08-17T11:53:24;35.00;;;0.80;;
3817;SDS011;1924;48.078;11.516;2023-08-17T11:55:52;34.83;;;0.80;;
3817;SDS011;1924;48.078;11.516;2023-08-17T11:58:31;34.77;;;0.80;;
3817;SDS011;1924;48.078;11.516;2023-08-17T12:01:02;35.07;;;0.80;;
3817;SDS011;1924;48.078;11.516;2023-08-17T12:03:34;35.03;;;0.80;;
3817;SDS011;1924;48.078;11.516;2023-08-17T12:06:01;35.07;;;0.80;;
3817;SDS011;1924;48.078;11.516;2023-08-17T12:08:28;34.80;;;0.80;;
3817;SDS011;1924;48.078;11.516;2023-08-17T12:10:57;34.93;;;0.80;;
3817;SDS011;1924;48.078;11.516;2023-08-17T12:13:29;34.83;;;0.80;;
3817;SDS011;1924;48.078;11.516;2023-08-17T12:15:56;34.77;;;0.80;;
3817;SDS011;1924;48.078;11.516;2023-08-17T12:18:24;34.80;;;0.80;;
3817;SDS011;1924;48.078;11.516;2023-08-17T12:20:52;34.57;;;0.80;;
3817;SDS011;1924;48.078;11.516;2023-08-17T12:23:19;34.80;;;0.80;;
3817;SDS011;1924;48.078;11.516;2023-08-17T12:25:46;34.60;;;0.80;;
3817;SDS011;1924;48.078;11.516;2023-08-17T12:28:20;34.80;;;0.80;;
3817;SDS011;1924;48.078;11.516;2023-08-17T12:30:46;34.63;;;0.80;;
3817;SDS011;1924;48.078;11.516;2023-08-17T12:33:13;34.90;;;0.80;;
3817;SDS011;1924;48.078;11.516;2023-08-17T12:35:40;34.77;;;0.80;;
3817;SDS011;1924;48.078;11.516;2023-08-17T12:38:06;34.77;;;0.70;;
3817;SDS011;1924;48.078;11.516;2023-08-17T12:40:33;35.00;;;0.80;;
3817;SDS011;1924;48.078;11.516;2023-08-17T12:43:00;35.00;;;0.80;;
3817;SDS011;1924;48.078;11.516;2023-08-17T12:45:28;34.93;;;0.80;;
3817;SDS011;1924;48.078;11.516;2023-08-17T12:47:56;34.87;;;0.80;;
3817;SDS011;1924;48.078;11.516;2023-08-17T12:50:23;34.87;;;0.80;;
3817;SDS011;1924;48.078;11.516;2023-08-17T12:52:52;34.97;;;0.80;;
3817;SDS011;1924;48.078;11.516;2023-08-17T12:55:19;35.00;;;0.80;;
3817;SDS011;1924;48.078;11.516;2023-08-17T12:57:46;34.83;;;0.80;;
3817;SDS011;1924;48.078;11.516;2023-08-17T13:00:13;34.97;;;0.80;;
3817;SDS011;1924;48.078;11.516;2023-08-17T13:02:41;34.83;;;0.80;;
3817;SDS011;1924;48.078;11.516;2023-08-17T13:05:14;35.03;;;0.80;;
3817;SDS011;1924;48.078;11.516;2023-08-17T13:07:44;34.83;;;0.80;;
3817;SDS011;1924;48.078;11.516;2023-08-17T13:10:14;35.10;;;0.80;;
3817;SDS011;1924;48.078;11.516;2023-08-17T13:12:41;35.07;;;0.80;;
3817;SDS011;1924;48.078;11.516;2023-08-17T13:15:07;34.90;;;0.80;;
3817;SDS011;1924;48.078;11.516;2023-08-17T13:17:34;34.97;;;0.80;;
3817;SDS011;1924;48.078;11.516;2023-08-17T13:20:03;35.03;;;0.80;;
3817;SDS011;1924;48.078;11.516;2023-08-17T13:22:31;34.60;;;0.80;;
3817;SDS011;1924;48.078;11.516;2023-08-17T13:24:58;35.07;;;0.80;;
3817;SDS011;1924;48.078;11.516;2023-08-17T13:27:28;35.17;;;0.80;;
3817;SDS011;1924;48.078;11.516;2023-08-17T13:29:54;35.23;;;0.80;;
3817;SDS011;1924;48.078;11.516;2023-08-17T13:32:23;35.17;;;0.80;;
3817;SDS011;1924;48.078;11.516;2023-08-17T13:34:50;35.17;;;0.80;;
3817;SDS011;1924;48.078;11.516;2023-08-17T13:37:18;35.17;;;0.80;;
3817;SDS011;1924;48.078;11.516;2023-08-17T13:39:45;35.43;;;0.80;;
3817;SDS011;1924;48.078;11.516;2023-08-17T13:42:12;35.63;;;0.80;;
3817;SDS011;1924;48.078;11.516;2023-08-17T13:44:39;35.57;;;0.80;;
3817;SDS011;1924;48.078;11.516;2023-08-17T13:47:09;35.73;;;0.80;;
3817;SDS011;1924;48.078;11.516;2023-08-17T13:49:35;35.73;;;0.80;;
3817;SDS011;1924;48.078;11.516;2023-08-17T13:52:02;35.77;;;0.80;;
3817;SDS011;1924;48.078;11.516;2023-08-17T13:54:31;35.47;;;0.80;;
3817;SDS011;1924;48.078;11.516;2023-08-17T13:56:58;35.90;;;0.80;;
3817;SDS011;1924;48.078;11.516;2023-08-17T13:59:28;35.87;;;0.80;;
3817;SDS011;1924;48.078;11.516;2023-08-17T14:01:55;35.77;;;0.80;;
3817;SDS011;1924;48.078;11.516;2023-08-17T14:04:22;35.90;;;0.80;;
3817;SDS011;1924;48.078;11.516;2023-08-17T14:06:49;35.70;;;0.80;;
3817;SDS011;1924;48.078;11.516;2023-08-17T14:09:17;35.90;;;0.80;;
3817;SDS011;1924;48.078;11.516;2023-08-17T14:11:45;35.67;;;0.80;;
3817;SDS011;1924;48.078;11.516;2023-08-17T14:14:12;35.80;;;0.80;;
3817;SDS011;1924;48.078;11.516;2023-08-17T14:16:39;35.83;;;0.80;;
3817;SDS011;1924;48.078;11.516;2023-08-17T14:19:06;35.90;;;0.80;;
3817;SDS011;1924;48.078;11.516;2023-08-17T14:21:33;35.87;;;0.80;;
3817;SDS011;1924;48.078;11.516;2023-08-17T14:24:00;36.03;;;0.80;;
3817;SDS011;1924;48.078;11.516;2023-08-17T14:26:27;35.73;;;0.80;;
3817;SDS011;1924;48.078;11.516;2023-08-17T14:28:55;35.90;;;0.80;;
3817;SDS011;1924;48.078;11.516;2023-08-17T14:31:22;36.00;;;0.80;;
3817;SDS011;1924;48.078;11.516;2023-08-17T14:33:51;35.87;;;0.80;;
3817;SDS011;1924;48.078;11.516;2023-08-17T14:36:18;35.80;;;0.80;;
3817;SDS011;1924;48.078;11.516;2023-08-17T14:38:45;35.67;;;0.80;;
3817;SDS011;1924;48.078;11.516;2023-08-17T14:41:12;35.60;;;0.80;;
3817;SDS011;1924;48.078;11.516;2023-08-17T14:43:38;35.80;;;0.80;;
3817;SDS011;1924;48.078;11.516;2023-08-17T14:46:06;35.70;;;0.80;;
3817;SDS011;1924;48.078;11.516;2023-08-17T14:48:33;35.57;;;0.80;;
3817;SDS011;1924;48.078;11.516;2023-08-17T14:51:00;35.47;;;0.80;;
3817;SDS011;1924;48.078;11.516;2023-08-17T14:53:27;35.47;;;0.80;;
3817;SDS011;1924;48.078;11.516;2023-08-17T14:55:54;35.57;;;0.80;;
3817;SDS011;1924;48.078;11.516;2023-08-17T14:58:21;35.43;;;0.80;;
3817;SDS011;1924;48.078;11.516;2023-08-17T15:00:48;35.57;;;0.80;;
3817;SDS011;1924;48.078;11.516;2023-08-17T15:03:16;35.37;;;0.80;;
3817;SDS011;1924;48.078;11.516;2023-08-17T15:05:42;35.17;;;0.80;;
3817;SDS011;1924;48.078;11.516;2023-08-17T15:08:09;35.37;;;0.80;;
3817;SDS011;1924;48.078;11.516;2023-08-17T15:10:36;35.37;;;0.80;;
3817;SDS011;1924;48.078;11.516;2023-08-17T15:13:02;35.07;;;0.80;;
3817;SDS011;1924;48.078;11.516;2023-08-17T15:15:29;35.40;;;0.80;;
3817;SDS011;1924;48.078;11.516;2023-08-17T15:17:56;35.13;;;0.80;;
3817;SDS011;1924;48.078;11.516;2023-08-17T15:20:24;35.40;;;0.80;;
3817;SDS011;1924;48.078;11.516;2023-08-17T15:22:52;35.47;;;0.80;;
3817;SDS011;1924;48.078;11.516;2023-08-17T15:25:18;35.70;;;0.80;;
3817;SDS011;1924;48.078;11.516;2023-08-17T15:27:45;35.47;;;0.80;;
3817;SDS011;1924;48.078;11.516;2023-08-17T15:30:12;35.57;;;0.80;;
3817;SDS011;1924;48.078;11.516;2023-08-17T15:32:39;35.53;;;0.80;;
3817;SDS011;1924;48.078;11.516;2023-08-17T15:35:06;35.37;;;0.80;;
3817;SDS011;1924;48.078;11.516;2023-08-17T15:37:35;35.57;;;0.80;;
3817;SDS011;1924;48.078;11.516;2023-08-17T15:40:02;35.70;;;0.80;;
3817;SDS011;1924;48.078;11.516;2023-08-17T15:42:29;35.60;;;0.80;;
3817;SDS011;1924;48.078;11.516;2023-08-17T15:44:56;35.43;;;0.80;;
3817;SDS011;1924;48.078;11.516;2023-08-17T15:47:23;35.43;;;0.80;;
3817;SDS011;1924;48.078;11.516;2023-08-17T15:49:50;35.63;;;0.80;;
3817;SDS011;1924;48.078;11.516;2023-08-17T15:52:16;35.77;;;0.80;;
3817;SDS011;1924;48.078;11.516;2023-08-17T15:54:44;35.57;;;0.80;;
3817;SDS011;1924;48.078;11.516;2023-08-17T15:57:11;35.67;;;0.80;;
3817;SDS011;1924;48.078;11.516;2023-08-17T15:59:38;35.53;;;0.80;;
3817;SDS011;1924;48.078;11.516;2023-08-17T16:02:05;35.57;;;0.80;;
3817;SDS011;1924;48.078;11.516;2023-08-17T16:04:32;35.67;;;0.80;;
3817;SDS011;1924;48.078;11.516;2023-08-17T16:06:59;35.87;;;0.80;;
3817;SDS011;1924;48.078;11.516;2023-08-17T16:09:26;35.93;;;0.80;;
3817;SDS011;1924;48.078;11.516;2023-08-17T16:11:54;35.83;;;0.80;;
3817;SDS011;1924;48.078;11.516;2023-08-17T16:14:21;35.93;;;0.80;;
3817;SDS011;1924;48.078;11.516;2023-08-17T16:16:47;35.93;;;0.80;;
3817;SDS011;1924;48.078;11.516;2023-08-17T16:19:14;36.20;;;0.80;;
3817;SDS011;1924;48.078;11.516;2023-08-17T16:21:42;36.27;;;0.80;;
3817;SDS011;1924;48.078;11.516;2023-08-17T16:24:11;35.87;;;0.80;;
3817;SDS011;1924;48.078;11.516;2023-08-17T16:26:37;36.17;;;0.80;;
3817;SDS011;1924;48.078;11.516;2023-08-17T16:29:06;36.37;;;0.80;;
3817;SDS011;1924;48.078;11.516;2023-08-17T16:31:33;36.47;;;0.80;;
3817;SDS011;1924;48.078;11.516;2023-08-17T16:34:00;36.43;;;0.80;;
3817;SDS011;1924;48.078;11.516;2023-08-17T16:36:27;36.63;;;0.80;;
3817;SDS011;1924;48.078;11.516;2023-08-17T16:38:54;36.57;;;0.80;;
3817;SDS011;1924;48.078;11.516;2023-08-17T16:41:21;36.70;;;0.80;;
3817;SDS011;1924;48.078;11.516;2023-08-17T16:43:47;36.57;;;0.80;;
3817;SDS011;1924;48.078;11.516;2023-08-17T16:46:15;36.67;;;0.80;;
3817;SDS011;1924;48.078;11.516;2023-08-17T16:48:43;36.63;;;0.90;;
3817;SDS011;1924;48.078;11.516;2023-08-17T16:51:10;36.77;;;0.80;;
3817;SDS011;1924;48.078;11.516;2023-08-17T16:53:37;36.27;;;0.80;;
3817;SDS011;1924;48.078;11.516;2023-08-17T16:56:04;36.73;;;0.80;;
3817;SDS011;1924;48.078;11.516;2023-08-17T16:58:31;36.43;;;0.80;;
3817;SDS011;1924;48.078;11.516;2023-08-17T17:00:58;36.63;;;0.80;;
3817;SDS011;1924;48.078;11.516;2023-08-17T17:03:26;36.83;;;0.80;;
3817;SDS011;1924;48.078;11.516;2023-08-17T17:05:53;36.97;;;0.80;;
3817;SDS011;1924;48.078;11.516;2023-08-17T17:08:19;37.17;;;0.90;;
3817;SDS011;1924;48.078;11.516;2023-08-17T17:10:46;37.03;;;0.80;;
3817;SDS011;1924;48.078;11.516;2023-08-17T17:13:13;37.10;;;0.80;;
3817;SDS011;1924;48.078;11.516;2023-08-17T17:15:40;37.07;;;0.80;;
3817;SDS011;1924;48.078;11.516;2023-08-17T17:18:06;37.00;;;0.80;;
3817;SDS011;1924;48.078;11.516;2023-08-17T17:20:35;36.87;;;0.80;;
3817;SDS011;1924;48.078;11.516;2023-08-17T17:23:02;36.80;;;0.90;;
3817;SDS011;1924;48.078;11.516;2023-08-17T17:25:29;36.73;;;0.80;;
3817;SDS011;1924;48.078;11.516;2023-08-17T17:27:56;36.67;;;0.80;;
3817;SDS011;1924;48.078;11.516;2023-08-17T17:30:23;36.73;;;0.80;;
3817;SDS011;1924;48.078;11.516;2023-08-17T17:32:50;36.57;;;0.80;;
3817;SDS011;1924;48.078;11.516;2023-08-17T17:35:16;36.83;;;0.80;;
3817;SDS011;1924;48.078;11.516;2023-08-17T17:37:45;36.63;;;0.80;;
3817;SDS011;1924;48.078;11.516;2023-08-17T17:40:11;36.80;;;0.80;;
3817;SDS011;1924;48.078;11.516;2023-08-17T17:42:38;36.47;;;0.80;;
3817;SDS011;1924;48.078;11.516;2023-08-17T17:45:05;36.27;;;0.80;;
3817;SDS011;1924;48.078;11.516;2023-08-17T17:47:32;36.47;;;0.80;;
3817;SDS011;1924;48.078;11.516;2023-08-17T17:49:59;36.53;;;0.80;;
3817;SDS011;1924;48.078;11.516;2023-08-17T17:52:26;36.70;;;0.80;;
3817;SDS011;1924;48.078;11.516;2023-08-17T17:54:55;36.47;;;0.90;;
3817;SDS011;1924;48.078;11.516;2023-08-17T17:57:22;36.23;;;0.80;;
3817;SDS011;1924;48.078;11.516;2023-08-17T17:59:48;36.33;;;0.80;;
3817;SDS011;1924;48.078;11.516;2023-08-17T18:02:16;36.37;;;0.83;;
3817;SDS011;1924;48.078;11.516;2023-08-17T18:04:43;36.50;;;0.80;;
3817;SDS011;1924;48.078;11.516;2023-08-17T18:07:10;36.33;;;0.80;;
3817;SDS011;1924;48.078;11.516;2023-08-17T18:09:37;36.17;;;0.80;;
3817;SDS011;1924;48.078;11.516;2023-08-17T18:12:05;36.37;;;0.80;;